Terminal Aerodrome Forecast
Issued by NWS

Home | Current Version | Previous Version | Graphics & Text | Print | Product List | Glossary On
Versions: 1 2 3 4 5 6 7 8 9 10 11 12 13 14 15 16 17 18
510
FTUS43 KLSX 242227 AAA
TAFSUS
TAF AMD
KSUS 242227Z 2422/2518 18007KT P6SM VCSH SCT025 BKN040
     FM250000 18006KT P6SM SCT050 BKN150
     FM251500 18007KT P6SM VCTS BKN050CB=

USA.gov is the U.S. government's official web portal to all federal, state and local government web resources and services.